Weather at Cologne Bonn Airport

Public forecast

Using degrees Celsius for public forecast. Weather courtesy of forecast.io.

Current aviation weather report (METAR) for Cologne Bonn Airport

Report is more than 6 hours old.

2022/11/14 15:20 (retrieved 2 years ago)

EDDK 141520Z AUTO 14009KT 9999 BKN017 OVC033 08/05 Q1011 NOSIG

Aviation forecast (TAF) for Cologne Bonn Airport

Forecast is more than 12 hours old.

2023/02/22 18:27 (retrieved 1 year ago)

TAF EDDK 221700Z 2218/2324 VRB03KT 9999 BKN030 BECMG 2300/2303 BKN012 TEMPO 2303/2312 3500 -RADZ BR BKN007 BECMG 2309/2312 32006KT BECMG 2312/2315 BKN015 TEMPO 2315/2324 BKN010